sensor_id;sensor_type;location;lat;lon;timestamp;P1;durP1;ratioP1;P2;durP2;ratioP2
26484;SDS011;18083;50.560;7.262;2022-11-20T00:00:21;29.00;;;16.20;;
26484;SDS011;18083;50.560;7.262;2022-11-20T00:02:48;36.77;;;16.67;;
26484;SDS011;18083;50.560;7.262;2022-11-20T00:05:16;27.13;;;13.73;;
26484;SDS011;18083;50.560;7.262;2022-11-20T00:07:44;28.17;;;16.70;;
26484;SDS011;18083;50.560;7.262;2022-11-20T00:10:11;26.43;;;16.43;;
26484;SDS011;18083;50.560;7.262;2022-11-20T00:12:39;33.70;;;17.73;;
26484;SDS011;18083;50.560;7.262;2022-11-20T00:15:06;32.33;;;17.27;;
26484;SDS011;18083;50.560;7.262;2022-11-20T00:17:34;30.43;;;16.70;;
26484;SDS011;18083;50.560;7.262;2022-11-20T00:23:03;26.40;;;16.03;;
26484;SDS011;18083;50.560;7.262;2022-11-20T00:25:36;28.93;;;14.87;;
26484;SDS011;18083;50.560;7.262;2022-11-20T00:28:03;31.80;;;16.47;;
26484;SDS011;18083;50.560;7.262;2022-11-20T00:30:33;33.33;;;17.03;;
26484;SDS011;18083;50.560;7.262;2022-11-20T00:33:00;31.40;;;16.97;;
26484;SDS011;18083;50.560;7.262;2022-11-20T00:35:28;27.83;;;16.47;;
26484;SDS011;18083;50.560;7.262;2022-11-20T00:37:55;29.60;;;16.40;;
26484;SDS011;18083;50.560;7.262;2022-11-20T00:40:22;27.73;;;16.13;;
26484;SDS011;18083;50.560;7.262;2022-11-20T00:42:50;25.40;;;15.07;;
26484;SDS011;18083;50.560;7.262;2022-11-20T00:45:17;26.37;;;15.87;;
26484;SDS011;18083;50.560;7.262;2022-11-20T00:47:45;30.13;;;16.93;;
26484;SDS011;18083;50.560;7.262;2022-11-20T00:50:12;24.23;;;14.73;;
26484;SDS011;18083;50.560;7.262;2022-11-20T00:52:39;32.53;;;16.43;;
26484;SDS011;18083;50.560;7.262;2022-11-20T00:55:07;40.60;;;19.30;;
26484;SDS011;18083;50.560;7.262;2022-11-20T00:57:34;31.60;;;16.63;;
26484;SDS011;18083;50.560;7.262;2022-11-20T01:00:01;33.13;;;17.67;;
26484;SDS011;18083;50.560;7.262;2022-11-20T01:02:29;30.80;;;15.77;;
26484;SDS011;18083;50.560;7.262;2022-11-20T01:04:56;30.77;;;17.97;;
26484;SDS011;18083;50.560;7.262;2022-11-20T01:07:24;27.30;;;16.23;;
26484;SDS011;18083;50.560;7.262;2022-11-20T01:09:51;31.47;;;16.97;;
26484;SDS011;18083;50.560;7.262;2022-11-20T01:12:18;29.87;;;15.97;;
26484;SDS011;18083;50.560;7.262;2022-11-20T01:14:46;28.23;;;16.33;;
26484;SDS011;18083;50.560;7.262;2022-11-20T01:17:14;33.67;;;17.03;;
26484;SDS011;18083;50.560;7.262;2022-11-20T01:19:41;27.40;;;15.67;;
26484;SDS011;18083;50.560;7.262;2022-11-20T01:22:10;27.80;;;15.63;;
26484;SDS011;18083;50.560;7.262;2022-11-20T01:24:37;28.60;;;17.27;;
26484;SDS011;18083;50.560;7.262;2022-11-20T01:27:05;28.50;;;16.23;;
26484;SDS011;18083;50.560;7.262;2022-11-20T01:29:32;32.10;;;17.13;;
26484;SDS011;18083;50.560;7.262;2022-11-20T01:31:59;31.07;;;17.70;;
26484;SDS011;18083;50.560;7.262;2022-11-20T01:34:27;30.70;;;16.33;;
26484;SDS011;18083;50.560;7.262;2022-11-20T01:36:54;30.93;;;16.57;;
26484;SDS011;18083;50.560;7.262;2022-11-20T01:39:23;34.43;;;19.60;;
26484;SDS011;18083;50.560;7.262;2022-11-20T01:41:51;32.40;;;17.53;;
26484;SDS011;18083;50.560;7.262;2022-11-20T01:47:25;32.67;;;17.23;;
26484;SDS011;18083;50.560;7.262;2022-11-20T01:49:55;37.03;;;18.67;;
26484;SDS011;18083;50.560;7.262;2022-11-20T01:52:32;34.77;;;18.93;;
26484;SDS011;18083;50.560;7.262;2022-11-20T01:55:04;39.37;;;19.33;;
26484;SDS011;18083;50.560;7.262;2022-11-20T01:57:28;33.93;;;18.20;;
26484;SDS011;18083;50.560;7.262;2022-11-20T01:59:58;27.87;;;16.73;;
26484;SDS011;18083;50.560;7.262;2022-11-20T02:02:25;37.53;;;18.43;;
26484;SDS011;18083;50.560;7.262;2022-11-20T02:04:54;30.80;;;17.20;;
26484;SDS011;18083;50.560;7.262;2022-11-20T02:07:22;31.67;;;16.93;;
26484;SDS011;18083;50.560;7.262;2022-11-20T02:09:50;35.63;;;18.60;;
26484;SDS011;18083;50.560;7.262;2022-11-20T02:12:18;29.17;;;15.90;;
26484;SDS011;18083;50.560;7.262;2022-11-20T02:15:03;31.47;;;16.70;;
26484;SDS011;18083;50.560;7.262;2022-11-20T02:17:31;36.77;;;18.27;;
26484;SDS011;18083;50.560;7.262;2022-11-20T02:19:58;33.23;;;18.63;;
26484;SDS011;18083;50.560;7.262;2022-11-20T02:22:30;35.63;;;19.23;;
26484;SDS011;18083;50.560;7.262;2022-11-20T02:24:58;33.20;;;17.57;;
26484;SDS011;18083;50.560;7.262;2022-11-20T02:27:26;33.80;;;18.20;;
26484;SDS011;18083;50.560;7.262;2022-11-20T02:29:58;35.07;;;19.80;;
26484;SDS011;18083;50.560;7.262;2022-11-20T02:32:33;32.90;;;17.60;;
26484;SDS011;18083;50.560;7.262;2022-11-20T02:35:37;32.40;;;18.43;;
26484;SDS011;18083;50.560;7.262;2022-11-20T02:37:38;31.07;;;17.13;;
26484;SDS011;18083;50.560;7.262;2022-11-20T02:40:07;29.63;;;16.73;;
26484;SDS011;18083;50.560;7.262;2022-11-20T02:42:35;32.87;;;19.43;;
26484;SDS011;18083;50.560;7.262;2022-11-20T02:45:03;34.37;;;18.17;;
26484;SDS011;18083;50.560;7.262;2022-11-20T02:47:31;32.20;;;18.43;;
26484;SDS011;18083;50.560;7.262;2022-11-20T02:49:58;36.20;;;18.90;;
26484;SDS011;18083;50.560;7.262;2022-11-20T02:52:26;38.67;;;19.53;;
26484;SDS011;18083;50.560;7.262;2022-11-20T02:54:53;34.23;;;18.97;;
26484;SDS011;18083;50.560;7.262;2022-11-20T02:57:20;31.47;;;17.83;;
26484;SDS011;18083;50.560;7.262;2022-11-20T02:59:48;30.80;;;16.63;;
26484;SDS011;18083;50.560;7.262;2022-11-20T03:02:15;34.80;;;18.67;;
26484;SDS011;18083;50.560;7.262;2022-11-20T03:04:43;34.63;;;18.43;;
26484;SDS011;18083;50.560;7.262;2022-11-20T03:07:10;28.93;;;15.70;;
26484;SDS011;18083;50.560;7.262;2022-11-20T03:09:37;34.97;;;17.33;;
26484;SDS011;18083;50.560;7.262;2022-11-20T03:12:05;28.77;;;16.87;;
26484;SDS011;18083;50.560;7.262;2022-11-20T03:14:32;34.80;;;18.40;;
26484;SDS011;18083;50.560;7.262;2022-11-20T03:16:59;29.73;;;16.97;;
26484;SDS011;18083;50.560;7.262;2022-11-20T03:19:27;34.83;;;19.07;;
26484;SDS011;18083;50.560;7.262;2022-11-20T03:21:54;31.43;;;18.53;;
26484;SDS011;18083;50.560;7.262;2022-11-20T03:24:21;30.83;;;17.03;;
26484;SDS011;18083;50.560;7.262;2022-11-20T03:26:49;40.60;;;18.40;;
26484;SDS011;18083;50.560;7.262;2022-11-20T03:29:16;32.33;;;17.37;;
26484;SDS011;18083;50.560;7.262;2022-11-20T03:31:44;30.53;;;16.73;;
26484;SDS011;18083;50.560;7.262;2022-11-20T03:34:11;29.83;;;16.63;;
26484;SDS011;18083;50.560;7.262;2022-11-20T03:36:39;29.40;;;15.67;;
26484;SDS011;18083;50.560;7.262;2022-11-20T03:39:07;30.67;;;16.93;;
26484;SDS011;18083;50.560;7.262;2022-11-20T03:41:38;34.73;;;18.60;;
26484;SDS011;18083;50.560;7.262;2022-11-20T03:44:06;33.37;;;18.10;;
26484;SDS011;18083;50.560;7.262;2022-11-20T03:46:34;37.97;;;18.03;;
26484;SDS011;18083;50.560;7.262;2022-11-20T03:49:02;28.47;;;15.17;;
26484;SDS011;18083;50.560;7.262;2022-11-20T03:51:31;34.23;;;17.57;;
26484;SDS011;18083;50.560;7.262;2022-11-20T03:54:00;31.53;;;17.53;;
26484;SDS011;18083;50.560;7.262;2022-11-20T03:56:28;28.30;;;16.27;;
26484;SDS011;18083;50.560;7.262;2022-11-20T03:58:56;27.60;;;17.23;;
26484;SDS011;18083;50.560;7.262;2022-11-20T04:01:25;30.10;;;16.80;;
26484;SDS011;18083;50.560;7.262;2022-11-20T04:03:53;34.77;;;18.00;;
26484;SDS011;18083;50.560;7.262;2022-11-20T04:06:22;30.27;;;16.87;;
26484;SDS011;18083;50.560;7.262;2022-11-20T04:08:49;32.17;;;18.00;;
26484;SDS011;18083;50.560;7.262;2022-11-20T04:11:18;29.63;;;17.37;;
26484;SDS011;18083;50.560;7.262;2022-11-20T04:13:46;31.33;;;17.47;;
26484;SDS011;18083;50.560;7.262;2022-11-20T04:16:15;35.13;;;16.87;;
26484;SDS011;18083;50.560;7.262;2022-11-20T04:18:42;31.40;;;18.40;;
26484;SDS011;18083;50.560;7.262;2022-11-20T04:21:10;36.20;;;18.60;;
26484;SDS011;18083;50.560;7.262;2022-11-20T04:23:37;37.50;;;18.67;;
26484;SDS011;18083;50.560;7.262;2022-11-20T04:26:06;30.87;;;17.80;;
26484;SDS011;18083;50.560;7.262;2022-11-20T04:28:33;34.60;;;17.73;;
26484;SDS011;18083;50.560;7.262;2022-11-20T04:33:33;34.53;;;18.00;;
26484;SDS011;18083;50.560;7.262;2022-11-20T04:36:02;37.23;;;18.83;;
26484;SDS011;18083;50.560;7.262;2022-11-20T04:38:29;34.10;;;18.73;;
26484;SDS011;18083;50.560;7.262;2022-11-20T04:40:57;31.77;;;17.47;;
26484;SDS011;18083;50.560;7.262;2022-11-20T04:43:25;33.27;;;18.23;;
26484;SDS011;18083;50.560;7.262;2022-11-20T04:45:55;36.13;;;18.60;;
26484;SDS011;18083;50.560;7.262;2022-11-20T04:48:23;34.03;;;18.30;;
26484;SDS011;18083;50.560;7.262;2022-11-20T04:50:51;38.90;;;18.70;;
26484;SDS011;18083;50.560;7.262;2022-11-20T04:53:18;38.97;;;22.00;;
26484;SDS011;18083;50.560;7.262;2022-11-20T04:55:46;34.07;;;18.70;;
26484;SDS011;18083;50.560;7.262;2022-11-20T04:58:14;35.20;;;19.53;;
26484;SDS011;18083;50.560;7.262;2022-11-20T05:00:41;38.67;;;20.63;;
26484;SDS011;18083;50.560;7.262;2022-11-20T05:03:09;36.90;;;21.10;;
26484;SDS011;18083;50.560;7.262;2022-11-20T05:05:36;41.40;;;20.33;;
26484;SDS011;18083;50.560;7.262;2022-11-20T05:08:03;45.83;;;23.17;;
26484;SDS011;18083;50.560;7.262;2022-11-20T05:10:31;40.27;;;19.87;;
26484;SDS011;18083;50.560;7.262;2022-11-20T05:12:58;41.80;;;20.77;;
26484;SDS011;18083;50.560;7.262;2022-11-20T05:15:25;43.37;;;20.20;;
26484;SDS011;18083;50.560;7.262;2022-11-20T05:17:53;42.53;;;20.17;;
26484;SDS011;18083;50.560;7.262;2022-11-20T05:20:20;43.87;;;21.00;;
26484;SDS011;18083;50.560;7.262;2022-11-20T05:22:47;39.37;;;19.27;;
26484;SDS011;18083;50.560;7.262;2022-11-20T05:25:15;39.47;;;20.27;;
26484;SDS011;18083;50.560;7.262;2022-11-20T05:27:42;38.13;;;20.97;;
26484;SDS011;18083;50.560;7.262;2022-11-20T05:30:10;38.50;;;21.27;;
26484;SDS011;18083;50.560;7.262;2022-11-20T05:32:37;35.00;;;18.67;;
26484;SDS011;18083;50.560;7.262;2022-11-20T05:35:05;45.07;;;20.70;;
26484;SDS011;18083;50.560;7.262;2022-11-20T05:37:32;45.30;;;20.93;;
26484;SDS011;18083;50.560;7.262;2022-11-20T05:39:59;41.97;;;20.07;;
26484;SDS011;18083;50.560;7.262;2022-11-20T05:42:29;40.53;;;18.80;;
26484;SDS011;18083;50.560;7.262;2022-11-20T05:44:59;37.63;;;20.33;;
26484;SDS011;18083;50.560;7.262;2022-11-20T05:47:27;41.17;;;19.97;;
26484;SDS011;18083;50.560;7.262;2022-11-20T05:49:54;46.70;;;21.63;;
26484;SDS011;18083;50.560;7.262;2022-11-20T05:52:22;39.97;;;21.33;;
26484;SDS011;18083;50.560;7.262;2022-11-20T05:54:49;40.57;;;22.20;;
26484;SDS011;18083;50.560;7.262;2022-11-20T05:57:17;45.83;;;21.33;;
26484;SDS011;18083;50.560;7.262;2022-11-20T05:59:44;48.17;;;22.33;;
26484;SDS011;18083;50.560;7.262;2022-11-20T06:02:11;46.47;;;21.10;;
26484;SDS011;18083;50.560;7.262;2022-11-20T06:04:39;40.17;;;19.23;;
26484;SDS011;18083;50.560;7.262;2022-11-20T06:07:06;38.10;;;20.60;;
26484;SDS011;18083;50.560;7.262;2022-11-20T06:09:33;44.57;;;20.03;;
26484;SDS011;18083;50.560;7.262;2022-11-20T06:12:01;43.10;;;19.93;;
26484;SDS011;18083;50.560;7.262;2022-11-20T06:14:28;41.20;;;20.50;;
26484;SDS011;18083;50.560;7.262;2022-11-20T06:16:55;42.07;;;20.87;;
26484;SDS011;18083;50.560;7.262;2022-11-20T06:19:23;36.27;;;19.27;;
26484;SDS011;18083;50.560;7.262;2022-11-20T06:21:50;39.43;;;19.03;;
26484;SDS011;18083;50.560;7.262;2022-11-20T06:24:18;48.70;;;21.60;;
26484;SDS011;18083;50.560;7.262;2022-11-20T06:26:45;38.93;;;19.90;;
26484;SDS011;18083;50.560;7.262;2022-11-20T06:29:12;41.13;;;19.13;;
26484;SDS011;18083;50.560;7.262;2022-11-20T06:31:40;49.33;;;21.27;;
26484;SDS011;18083;50.560;7.262;2022-11-20T06:34:08;43.90;;;19.63;;
26484;SDS011;18083;50.560;7.262;2022-11-20T06:36:36;45.40;;;19.10;;
26484;SDS011;18083;50.560;7.262;2022-11-20T06:39:03;30.50;;;18.07;;
26484;SDS011;18083;50.560;7.262;2022-11-20T06:41:30;39.27;;;18.77;;
26484;SDS011;18083;50.560;7.262;2022-11-20T06:43:58;34.27;;;19.80;;
26484;SDS011;18083;50.560;7.262;2022-11-20T06:46:25;36.53;;;20.97;;
26484;SDS011;18083;50.560;7.262;2022-11-20T06:48:53;41.73;;;20.17;;
26484;SDS011;18083;50.560;7.262;2022-11-20T06:51:21;37.00;;;19.57;;
26484;SDS011;18083;50.560;7.262;2022-11-20T06:53:48;43.20;;;20.60;;
26484;SDS011;18083;50.560;7.262;2022-11-20T06:56:15;42.00;;;22.00;;
26484;SDS011;18083;50.560;7.262;2022-11-20T06:58:43;41.90;;;21.00;;
26484;SDS011;18083;50.560;7.262;2022-11-20T07:01:11;41.13;;;19.43;;
26484;SDS011;18083;50.560;7.262;2022-11-20T07:03:39;45.70;;;21.70;;
26484;SDS011;18083;50.560;7.262;2022-11-20T07:06:07;42.30;;;20.03;;
26484;SDS011;18083;50.560;7.262;2022-11-20T07:08:34;43.43;;;20.07;;
26484;SDS011;18083;50.560;7.262;2022-11-20T07:11:02;42.40;;;21.33;;
26484;SDS011;18083;50.560;7.262;2022-11-20T07:13:30;48.13;;;20.13;;
26484;SDS011;18083;50.560;7.262;2022-11-20T07:16:12;58.43;;;25.70;;
26484;SDS011;18083;50.560;7.262;2022-11-20T07:18:39;52.83;;;26.57;;
26484;SDS011;18083;50.560;7.262;2022-11-20T07:21:07;47.73;;;25.47;;
26484;SDS011;18083;50.560;7.262;2022-11-20T07:23:35;41.73;;;21.00;;
26484;SDS011;18083;50.560;7.262;2022-11-20T07:26:08;44.77;;;22.13;;
26484;SDS011;18083;50.560;7.262;2022-11-20T07:28:32;48.40;;;25.77;;
26484;SDS011;18083;50.560;7.262;2022-11-20T07:30:59;40.53;;;22.27;;
26484;SDS011;18083;50.560;7.262;2022-11-20T07:33:27;40.10;;;21.83;;
26484;SDS011;18083;50.560;7.262;2022-11-20T07:35:54;43.17;;;23.07;;
26484;SDS011;18083;50.560;7.262;2022-11-20T07:38:21;43.07;;;22.57;;
26484;SDS011;18083;50.560;7.262;2022-11-20T07:40:52;51.83;;;23.10;;
26484;SDS011;18083;50.560;7.262;2022-11-20T07:43:18;47.90;;;22.07;;
26484;SDS011;18083;50.560;7.262;2022-11-20T07:45:45;47.60;;;22.83;;
26484;SDS011;18083;50.560;7.262;2022-11-20T07:48:13;43.83;;;23.47;;
26484;SDS011;18083;50.560;7.262;2022-11-20T07:50:40;43.13;;;22.07;;
26484;SDS011;18083;50.560;7.262;2022-11-20T07:53:08;42.97;;;21.30;;
26484;SDS011;18083;50.560;7.262;2022-11-20T07:55:35;40.47;;;21.37;;
26484;SDS011;18083;50.560;7.262;2022-11-20T07:58:02;49.90;;;22.63;;
26484;SDS011;18083;50.560;7.262;2022-11-20T08:00:30;46.87;;;23.73;;
26484;SDS011;18083;50.560;7.262;2022-11-20T08:02:57;46.67;;;22.87;;
26484;SDS011;18083;50.560;7.262;2022-11-20T08:05:24;53.77;;;27.37;;
26484;SDS011;18083;50.560;7.262;2022-11-20T08:07:52;44.37;;;23.80;;
26484;SDS011;18083;50.560;7.262;2022-11-20T08:10:19;45.87;;;20.83;;
26484;SDS011;18083;50.560;7.262;2022-11-20T08:12:51;60.10;;;26.70;;
26484;SDS011;18083;50.560;7.262;2022-11-20T08:15:38;51.80;;;24.80;;
26484;SDS011;18083;50.560;7.262;2022-11-20T08:18:07;47.60;;;23.70;;
26484;SDS011;18083;50.560;7.262;2022-11-20T08:20:35;52.33;;;22.83;;
26484;SDS011;18083;50.560;7.262;2022-11-20T08:23:03;41.87;;;20.43;;
26484;SDS011;18083;50.560;7.262;2022-11-20T08:25:33;45.80;;;21.90;;
26484;SDS011;18083;50.560;7.262;2022-11-20T08:28:01;50.60;;;22.13;;
26484;SDS011;18083;50.560;7.262;2022-11-20T08:30:30;43.60;;;21.23;;
26484;SDS011;18083;50.560;7.262;2022-11-20T08:33:07;45.43;;;23.93;;
26484;SDS011;18083;50.560;7.262;2022-11-20T08:35:35;50.60;;;22.93;;
26484;SDS011;18083;50.560;7.262;2022-11-20T08:38:04;47.53;;;22.13;;
26484;SDS011;18083;50.560;7.262;2022-11-20T08:40:32;52.90;;;25.60;;
26484;SDS011;18083;50.560;7.262;2022-11-20T08:43:00;48.80;;;24.73;;
26484;SDS011;18083;50.560;7.262;2022-11-20T08:45:27;47.27;;;22.97;;
26484;SDS011;18083;50.560;7.262;2022-11-20T08:47:59;48.57;;;23.87;;
26484;SDS011;18083;50.560;7.262;2022-11-20T08:50:24;44.20;;;24.57;;
26484;SDS011;18083;50.560;7.262;2022-11-20T08:52:51;48.13;;;23.93;;
26484;SDS011;18083;50.560;7.262;2022-11-20T08:55:18;67.90;;;38.30;;
26484;SDS011;18083;50.560;7.262;2022-11-20T08:57:46;42.87;;;22.70;;
26484;SDS011;18083;50.560;7.262;2022-11-20T09:02:40;41.87;;;19.03;;
26484;SDS011;18083;50.560;7.262;2022-11-20T09:05:08;38.17;;;20.67;;
26484;SDS011;18083;50.560;7.262;2022-11-20T09:07:35;38.73;;;20.17;;
26484;SDS011;18083;50.560;7.262;2022-11-20T09:10:03;40.40;;;20.87;;
26484;SDS011;18083;50.560;7.262;2022-11-20T09:12:30;39.63;;;18.50;;
26484;SDS011;18083;50.560;7.262;2022-11-20T09:14:57;41.83;;;21.43;;
26484;SDS011;18083;50.560;7.262;2022-11-20T09:17:25;39.83;;;18.80;;
26484;SDS011;18083;50.560;7.262;2022-11-20T09:19:52;37.67;;;20.43;;
26484;SDS011;18083;50.560;7.262;2022-11-20T09:22:19;36.77;;;19.10;;
26484;SDS011;18083;50.560;7.262;2022-11-20T09:24:46;33.57;;;18.00;;
26484;SDS011;18083;50.560;7.262;2022-11-20T09:27:14;37.27;;;20.23;;
26484;SDS011;18083;50.560;7.262;2022-11-20T09:29:43;38.70;;;20.10;;
26484;SDS011;18083;50.560;7.262;2022-11-20T09:32:10;45.13;;;20.10;;
26484;SDS011;18083;50.560;7.262;2022-11-20T09:34:38;35.47;;;18.23;;
26484;SDS011;18083;50.560;7.262;2022-11-20T09:37:05;39.23;;;20.27;;
26484;SDS011;18083;50.560;7.262;2022-11-20T09:39:32;32.73;;;17.83;;
26484;SDS011;18083;50.560;7.262;2022-11-20T09:44:49;33.57;;;18.37;;
26484;SDS011;18083;50.560;7.262;2022-11-20T09:48:02;33.23;;;17.40;;
26484;SDS011;18083;50.560;7.262;2022-11-20T09:49:54;34.47;;;17.37;;
26484;SDS011;18083;50.560;7.262;2022-11-20T09:54:48;33.40;;;19.90;;
26484;SDS011;18083;50.560;7.262;2022-11-20T09:57:20;38.33;;;19.20;;
26484;SDS011;18083;50.560;7.262;2022-11-20T10:02:45;36.23;;;19.47;;
26484;SDS011;18083;50.560;7.262;2022-11-20T10:05:12;36.13;;;20.17;;
26484;SDS011;18083;50.560;7.262;2022-11-20T10:13:00;39.60;;;19.83;;
26484;SDS011;18083;50.560;7.262;2022-11-20T10:20:56;34.53;;;18.70;;
26484;SDS011;18083;50.560;7.262;2022-11-20T10:26:36;37.73;;;18.80;;
26484;SDS011;18083;50.560;7.262;2022-11-20T10:31:38;31.03;;;17.83;;
26484;SDS011;18083;50.560;7.262;2022-11-20T10:34:27;32.97;;;16.20;;
26484;SDS011;18083;50.560;7.262;2022-11-20T10:36:55;30.30;;;14.77;;
26484;SDS011;18083;50.560;7.262;2022-11-20T10:39:37;26.80;;;14.97;;
26484;SDS011;18083;50.560;7.262;2022-11-20T10:42:04;28.00;;;16.03;;
26484;SDS011;18083;50.560;7.262;2022-11-20T10:44:33;33.93;;;18.80;;
26484;SDS011;18083;50.560;7.262;2022-11-20T10:47:18;24.53;;;15.70;;
26484;SDS011;18083;50.560;7.262;2022-11-20T11:01:42;28.07;;;15.57;;
26484;SDS011;18083;50.560;7.262;2022-11-20T11:31:21;27.83;;;15.80;;
26484;SDS011;18083;50.560;7.262;2022-11-20T11:33:45;28.13;;;15.57;;
26484;SDS011;18083;50.560;7.262;2022-11-20T11:36:30;25.17;;;14.90;;
26484;SDS011;18083;50.560;7.262;2022-11-20T11:38:57;33.73;;;16.57;;
26484;SDS011;18083;50.560;7.262;2022-11-20T11:41:25;28.97;;;16.13;;
26484;SDS011;18083;50.560;7.262;2022-11-20T11:43:54;29.57;;;15.60;;
26484;SDS011;18083;50.560;7.262;2022-11-20T11:46:44;34.20;;;18.60;;
26484;SDS011;18083;50.560;7.262;2022-11-20T11:49:38;28.97;;;16.57;;
26484;SDS011;18083;50.560;7.262;2022-11-20T11:52:16;28.43;;;14.37;;
26484;SDS011;18083;50.560;7.262;2022-11-20T11:54:53;26.63;;;14.57;;
26484;SDS011;18083;50.560;7.262;2022-11-20T11:58:10;26.57;;;14.60;;
26484;SDS011;18083;50.560;7.262;2022-11-20T12:00:10;27.57;;;15.30;;
26484;SDS011;18083;50.560;7.262;2022-11-20T12:02:43;30.10;;;16.07;;
26484;SDS011;18083;50.560;7.262;2022-11-20T12:07:43;29.10;;;16.07;;
26484;SDS011;18083;50.560;7.262;2022-11-20T12:13:15;28.23;;;16.47;;
26484;SDS011;18083;50.560;7.262;2022-11-20T12:15:39;34.27;;;18.30;;
26484;SDS011;18083;50.560;7.262;2022-11-20T12:18:14;31.40;;;16.43;;
26484;SDS011;18083;50.560;7.262;2022-11-20T12:20:41;35.43;;;18.37;;
26484;SDS011;18083;50.560;7.262;2022-11-20T12:23:15;32.37;;;17.33;;
26484;SDS011;18083;50.560;7.262;2022-11-20T12:25:37;30.37;;;14.67;;
26484;SDS011;18083;50.560;7.262;2022-11-20T12:28:21;36.90;;;15.87;;
26484;SDS011;18083;50.560;7.262;2022-11-20T12:36:11;34.90;;;17.33;;
26484;SDS011;18083;50.560;7.262;2022-11-20T12:43:52;31.70;;;18.50;;
26484;SDS011;18083;50.560;7.262;2022-11-20T12:46:43;28.57;;;16.07;;
26484;SDS011;18083;50.560;7.262;2022-11-20T12:49:19;33.50;;;16.63;;
26484;SDS011;18083;50.560;7.262;2022-11-20T13:04:38;33.43;;;16.70;;
26484;SDS011;18083;50.560;7.262;2022-11-20T13:07:02;29.40;;;17.60;;
26484;SDS011;18083;50.560;7.262;2022-11-20T13:09:31;27.50;;;14.50;;
26484;SDS011;18083;50.560;7.262;2022-11-20T13:19:35;28.13;;;16.57;;
26484;SDS011;18083;50.560;7.262;2022-11-20T13:24:52;35.03;;;16.63;;
26484;SDS011;18083;50.560;7.262;2022-11-20T13:27:22;29.77;;;15.80;;
26484;SDS011;18083;50.560;7.262;2022-11-20T13:30:14;29.07;;;16.03;;
26484;SDS011;18083;50.560;7.262;2022-11-20T13:32:51;30.77;;;16.57;;
26484;SDS011;18083;50.560;7.262;2022-11-20T13:35:26;32.63;;;17.97;;
26484;SDS011;18083;50.560;7.262;2022-11-20T13:40:29;28.10;;;16.17;;
26484;SDS011;18083;50.560;7.262;2022-11-20T13:43:01;27.80;;;17.53;;
26484;SDS011;18083;50.560;7.262;2022-11-20T13:45:29;32.23;;;18.43;;
26484;SDS011;18083;50.560;7.262;2022-11-20T13:47:59;27.90;;;16.43;;
26484;SDS011;18083;50.560;7.262;2022-11-20T13:53:07;36.80;;;17.80;;
26484;SDS011;18083;50.560;7.262;2022-11-20T13:55:36;27.57;;;17.20;;
26484;SDS011;18083;50.560;7.262;2022-11-20T14:00:56;32.80;;;16.30;;
26484;SDS011;18083;50.560;7.262;2022-11-20T14:03:21;34.23;;;16.77;;
26484;SDS011;18083;50.560;7.262;2022-11-20T14:05:51;29.57;;;16.47;;
26484;SDS011;18083;50.560;7.262;2022-11-20T14:08:24;31.87;;;17.30;;
26484;SDS011;18083;50.560;7.262;2022-11-20T14:10:47;29.13;;;15.83;;
26484;SDS011;18083;50.560;7.262;2022-11-20T14:13:18;30.50;;;17.87;;
26484;SDS011;18083;50.560;7.262;2022-11-20T14:15:46;30.13;;;15.33;;
26484;SDS011;18083;50.560;7.262;2022-11-20T14:18:14;24.73;;;13.83;;
26484;SDS011;18083;50.560;7.262;2022-11-20T14:23:30;23.23;;;14.40;;
26484;SDS011;18083;50.560;7.262;2022-11-20T14:25:58;25.73;;;15.33;;
26484;SDS011;18083;50.560;7.262;2022-11-20T14:28:30;32.33;;;17.47;;
26484;SDS011;18083;50.560;7.262;2022-11-20T14:30:54;23.07;;;12.70;;
26484;SDS011;18083;50.560;7.262;2022-11-20T14:33:22;25.47;;;14.93;;
26484;SDS011;18083;50.560;7.262;2022-11-20T14:35:54;29.77;;;16.23;;
26484;SDS011;18083;50.560;7.262;2022-11-20T14:38:24;30.63;;;16.10;;
26484;SDS011;18083;50.560;7.262;2022-11-20T14:40:51;30.10;;;16.93;;
26484;SDS011;18083;50.560;7.262;2022-11-20T14:43:23;30.50;;;16.47;;
26484;SDS011;18083;50.560;7.262;2022-11-20T14:46:10;28.30;;;16.13;;
26484;SDS011;18083;50.560;7.262;2022-11-20T14:48:39;28.03;;;16.37;;
26484;SDS011;18083;50.560;7.262;2022-11-20T14:51:37;23.70;;;14.43;;
26484;SDS011;18083;50.560;7.262;2022-11-20T14:54:16;34.60;;;16.47;;
26484;SDS011;18083;50.560;7.262;2022-11-20T14:57:25;28.73;;;16.33;;
26484;SDS011;18083;50.560;7.262;2022-11-20T14:59:49;31.67;;;16.83;;
26484;SDS011;18083;50.560;7.262;2022-11-20T15:02:16;31.43;;;17.00;;
26484;SDS011;18083;50.560;7.262;2022-11-20T15:04:48;26.23;;;17.17;;
26484;SDS011;18083;50.560;7.262;2022-11-20T15:07:22;33.60;;;16.53;;
26484;SDS011;18083;50.560;7.262;2022-11-20T15:09:41;28.93;;;15.90;;
26484;SDS011;18083;50.560;7.262;2022-11-20T15:12:16;27.27;;;16.70;;
26484;SDS011;18083;50.560;7.262;2022-11-20T15:14:37;34.30;;;17.53;;
26484;SDS011;18083;50.560;7.262;2022-11-20T15:17:07;34.80;;;18.87;;
26484;SDS011;18083;50.560;7.262;2022-11-20T15:19:34;29.73;;;17.27;;
26484;SDS011;18083;50.560;7.262;2022-11-20T15:22:01;28.27;;;16.50;;
26484;SDS011;18083;50.560;7.262;2022-11-20T15:24:28;29.30;;;18.07;;
26484;SDS011;18083;50.560;7.262;2022-11-20T15:26:56;32.27;;;16.97;;
26484;SDS011;18083;50.560;7.262;2022-11-20T15:29:23;34.23;;;17.13;;
26484;SDS011;18083;50.560;7.262;2022-11-20T15:31:50;31.17;;;18.37;;
26484;SDS011;18083;50.560;7.262;2022-11-20T15:34:19;32.33;;;17.50;;
26484;SDS011;18083;50.560;7.262;2022-11-20T15:36:47;32.27;;;16.27;;
26484;SDS011;18083;50.560;7.262;2022-11-20T15:39:14;27.03;;;16.27;;
26484;SDS011;18083;50.560;7.262;2022-11-20T15:41:41;27.97;;;16.53;;
26484;SDS011;18083;50.560;7.262;2022-11-20T15:44:09;30.33;;;16.67;;
26484;SDS011;18083;50.560;7.262;2022-11-20T15:46:37;26.03;;;14.80;;
26484;SDS011;18083;50.560;7.262;2022-11-20T15:49:06;26.63;;;16.10;;
26484;SDS011;18083;50.560;7.262;2022-11-20T15:51:35;30.37;;;16.73;;
26484;SDS011;18083;50.560;7.262;2022-11-20T15:54:24;24.77;;;14.47;;
26484;SDS011;18083;50.560;7.262;2022-11-20T15:56:32;22.77;;;12.17;;
26484;SDS011;18083;50.560;7.262;2022-11-20T15:58:59;20.70;;;12.37;;
26484;SDS011;18083;50.560;7.262;2022-11-20T16:01:27;20.03;;;13.67;;
26484;SDS011;18083;50.560;7.262;2022-11-20T16:03:54;21.60;;;11.53;;
26484;SDS011;18083;50.560;7.262;2022-11-20T16:06:21;19.47;;;10.57;;
26484;SDS011;18083;50.560;7.262;2022-11-20T16:08:49;14.93;;;8.37;;
26484;SDS011;18083;50.560;7.262;2022-11-20T16:11:16;14.90;;;7.73;;
26484;SDS011;18083;50.560;7.262;2022-11-20T16:13:44;17.13;;;11.00;;
26484;SDS011;18083;50.560;7.262;2022-11-20T16:16:34;22.00;;;12.27;;
26484;SDS011;18083;50.560;7.262;2022-11-20T16:19:21;28.70;;;12.97;;
26484;SDS011;18083;50.560;7.262;2022-11-20T16:21:48;22.70;;;12.63;;
26484;SDS011;18083;50.560;7.262;2022-11-20T16:24:15;20.87;;;12.00;;
26484;SDS011;18083;50.560;7.262;2022-11-20T16:26:43;22.83;;;13.17;;
26484;SDS011;18083;50.560;7.262;2022-11-20T16:29:10;26.53;;;13.27;;
26484;SDS011;18083;50.560;7.262;2022-11-20T16:31:38;22.13;;;12.77;;
26484;SDS011;18083;50.560;7.262;2022-11-20T16:34:06;21.47;;;13.33;;
26484;SDS011;18083;50.560;7.262;2022-11-20T16:36:53;26.30;;;13.73;;